createdAt,value
2018-06-24T00:01:11.861Z,11.70
2018-06-24T00:03:39.076Z,11.70
2018-06-24T00:06:06.268Z,11.70
2018-06-24T00:08:33.451Z,11.70
2018-06-24T00:11:00.728Z,11.70
2018-06-24T00:13:27.984Z,11.70
2018-06-24T00:15:55.195Z,11.70
2018-06-24T00:18:22.420Z,11.70
2018-06-24T00:20:49.661Z,11.70
2018-06-24T00:23:16.941Z,11.70
2018-06-24T00:25:44.184Z,11.70
2018-06-24T00:28:11.577Z,11.70
2018-06-24T00:30:38.983Z,11.70
2018-06-24T00:33:06.224Z,11.70
2018-06-24T00:35:33.779Z,11.70
2018-06-24T00:40:26.756Z,11.70
2018-06-24T00:42:53.979Z,11.70
2018-06-24T00:45:21.160Z,11.70
2018-06-24T00:47:48.377Z,11.70
2018-06-24T00:50:15.592Z,11.70
2018-06-24T00:52:42.806Z,11.70
2018-06-24T00:55:10.009Z,11.70
2018-06-24T00:57:37.228Z,11.70
2018-06-24T01:00:13.359Z,11.60
2018-06-24T01:02:40.749Z,11.60
2018-06-24T01:05:08.486Z,11.60
2018-06-24T01:07:35.689Z,11.60
2018-06-24T01:10:03.044Z,11.60
2018-06-24T01:12:30.300Z,11.60
2018-06-24T01:14:57.599Z,11.60
2018-06-24T01:17:24.879Z,11.60
2018-06-24T01:19:53.292Z,11.60
2018-06-24T01:22:20.481Z,11.60
2018-06-24T01:24:47.707Z,11.60
2018-06-24T01:27:14.848Z,11.60
2018-06-24T01:29:42.064Z,11.60
2018-06-24T01:32:09.260Z,11.60
2018-06-24T01:34:36.484Z,11.60
2018-06-24T01:37:03.841Z,11.60
2018-06-24T01:39:31.033Z,11.60
2018-06-24T01:41:58.344Z,11.60
2018-06-24T01:44:25.557Z,11.60
2018-06-24T01:46:53.576Z,11.60
2018-06-24T01:49:20.772Z,11.60
2018-06-24T01:51:48.013Z,11.50
2018-06-24T01:54:15.262Z,11.50
2018-06-24T01:56:42.529Z,11.50
2018-06-24T01:59:09.737Z,11.50
2018-06-24T02:01:37.157Z,11.50
2018-06-24T02:04:04.376Z,11.40
2018-06-24T02:06:31.587Z,11.40
2018-06-24T02:08:58.783Z,11.40
2018-06-24T02:11:25.980Z,11.40
2018-06-24T02:13:53.184Z,11.40
2018-06-24T02:16:20.392Z,11.40
2018-06-24T02:18:47.882Z,11.40
2018-06-24T02:21:15.136Z,11.30
2018-06-24T02:23:42.392Z,11.30
2018-06-24T02:26:09.593Z,11.30
2018-06-24T02:28:36.948Z,11.40
2018-06-24T02:31:04.353Z,11.40
2018-06-24T02:33:31.561Z,11.30
2018-06-24T02:35:59.354Z,11.40
2018-06-24T02:38:26.553Z,11.40
2018-06-24T02:40:53.772Z,11.30
2018-06-24T02:43:21.040Z,11.40
2018-06-24T02:45:48.501Z,11.40
2018-06-24T02:48:15.681Z,11.40
2018-06-24T02:50:42.927Z,11.40
2018-06-24T02:53:10.253Z,11.40
2018-06-24T02:55:37.444Z,11.40
2018-06-24T02:58:04.664Z,11.40
2018-06-24T03:00:31.892Z,11.40
2018-06-24T03:02:59.149Z,11.40
2018-06-24T03:05:26.382Z,11.50
2018-06-24T03:07:53.558Z,11.50
2018-06-24T03:10:20.807Z,11.50
2018-06-24T03:12:48.000Z,11.50
2018-06-24T03:15:15.180Z,11.50
2018-06-24T03:17:42.457Z,11.50
2018-06-24T03:20:09.641Z,11.50
2018-06-24T03:22:36.845Z,11.50
2018-06-24T03:25:04.180Z,11.60
2018-06-24T03:27:31.408Z,11.60
2018-06-24T03:29:58.777Z,11.60
2018-06-24T03:32:25.984Z,11.60
2018-06-24T03:34:53.537Z,11.60
2018-06-24T03:37:20.728Z,11.60
2018-06-24T03:39:47.972Z,11.60
2018-06-24T03:42:15.156Z,11.60
2018-06-24T03:44:42.402Z,11.60
2018-06-24T03:47:09.596Z,11.60
2018-06-24T03:49:36.849Z,11.60
2018-06-24T03:52:04.119Z,11.60
2018-06-24T03:54:31.397Z,11.60
2018-06-24T03:56:58.598Z,11.60
2018-06-24T03:59:25.831Z,11.70
2018-06-24T04:01:53.357Z,11.70
2018-06-24T04:04:20.570Z,11.70
2018-06-24T04:06:47.777Z,11.70
2018-06-24T04:09:15.106Z,11.70
2018-06-24T04:11:42.279Z,11.70
2018-06-24T04:14:09.497Z,11.70
2018-06-24T04:16:36.723Z,11.70
2018-06-24T04:19:03.985Z,11.70
2018-06-24T04:21:31.260Z,11.80
2018-06-24T04:23:58.491Z,11.80
2018-06-24T04:26:25.701Z,11.80
2018-06-24T04:28:53.259Z,11.80
2018-06-24T04:31:20.511Z,11.80
2018-06-24T04:33:47.717Z,11.70
2018-06-24T04:36:14.943Z,11.70
2018-06-24T04:38:42.137Z,11.70
2018-06-24T04:41:09.416Z,11.70
2018-06-24T04:46:03.953Z,11.60
2018-06-24T04:48:31.181Z,11.70
2018-06-24T04:50:58.394Z,11.60
2018-06-24T04:53:25.597Z,11.60
2018-06-24T04:55:52.845Z,11.60
2018-06-24T04:58:20.054Z,11.70
2018-06-24T05:00:47.347Z,11.70
2018-06-24T05:03:14.553Z,11.80
2018-06-24T05:05:41.844Z,11.80
2018-06-24T05:08:09.038Z,11.70
2018-06-24T05:10:36.284Z,11.70
2018-06-24T05:13:03.633Z,11.80
2018-06-24T05:15:30.826Z,11.80
2018-06-24T05:17:58.027Z,11.80
2018-06-24T05:20:25.269Z,11.80
2018-06-24T05:22:52.827Z,11.80
2018-06-24T05:27:47.427Z,11.80
2018-06-24T05:30:14.834Z,11.80
2018-06-24T05:32:42.042Z,11.90
2018-06-24T05:35:09.287Z,11.90
2018-06-24T05:40:14.317Z,12.00
2018-06-24T05:42:41.499Z,12.10
2018-06-24T05:45:08.745Z,12.10
2018-06-24T05:47:35.975Z,12.10
2018-06-24T05:50:03.409Z,12.20
2018-06-24T05:52:30.658Z,12.30
2018-06-24T05:54:57.834Z,12.30
2018-06-24T05:57:25.093Z,12.30
2018-06-24T05:59:52.300Z,12.30
2018-06-24T06:02:19.594Z,12.30
2018-06-24T06:04:46.822Z,12.40
2018-06-24T06:07:17.903Z,12.50
2018-06-24T06:09:45.153Z,12.50
2018-06-24T06:12:12.386Z,12.60
2018-06-24T06:14:39.610Z,12.60
2018-06-24T06:17:06.829Z,12.60
2018-06-24T06:19:34.046Z,12.60
2018-06-24T06:22:01.517Z,12.60
2018-06-24T06:24:28.777Z,12.80
2018-06-24T06:26:56.002Z,12.80
2018-06-24T06:29:23.231Z,13.10
2018-06-24T06:34:17.696Z,13.00
2018-06-24T06:36:44.953Z,13.10
2018-06-24T06:39:12.215Z,13.10
2018-06-24T06:41:39.465Z,13.20
2018-06-24T06:44:06.685Z,13.30
2018-06-24T06:46:33.932Z,13.50
2018-06-24T06:49:01.171Z,13.50
2018-06-24T06:51:28.357Z,13.70
2018-06-24T06:53:55.654Z,13.60
2018-06-24T06:56:23.377Z,13.70
2018-06-24T06:58:50.657Z,13.70
2018-06-24T07:01:17.893Z,13.60
2018-06-24T07:03:45.229Z,13.60
2018-06-24T07:06:12.460Z,13.70
2018-06-24T07:08:39.692Z,13.70
2018-06-24T07:11:07.401Z,13.50
2018-06-24T07:13:34.657Z,13.30
2018-06-24T07:16:01.958Z,13.20
2018-06-24T07:18:29.365Z,13.00
2018-06-24T07:20:56.637Z,12.70
2018-06-24T07:23:24.212Z,12.50
2018-06-24T07:25:51.435Z,12.40
2018-06-24T07:28:18.799Z,12.30
2018-06-24T07:30:46.058Z,12.40
2018-06-24T07:33:13.459Z,12.40
2018-06-24T07:35:40.741Z,12.40
2018-06-24T07:38:08.205Z,12.60
2018-06-24T07:40:35.430Z,12.60
2018-06-24T07:43:02.666Z,12.70
2018-06-24T07:45:29.924Z,12.80
2018-06-24T07:47:58.084Z,13.00
2018-06-24T07:50:25.342Z,12.90
2018-06-24T07:55:19.793Z,13.10
2018-06-24T07:57:47.862Z,13.30
2018-06-24T08:00:15.230Z,13.50
2018-06-24T08:02:42.437Z,13.80
2018-06-24T08:05:09.777Z,13.80
2018-06-24T08:07:36.934Z,13.90
2018-06-24T08:10:04.217Z,14.20
2018-06-24T08:12:31.539Z,13.90
2018-06-24T08:14:58.816Z,13.60
2018-06-24T08:17:26.146Z,13.50
2018-06-24T08:19:53.393Z,13.50
2018-06-24T08:22:20.619Z,13.60
2018-06-24T08:24:47.833Z,13.40
2018-06-24T08:27:15.015Z,13.40
2018-06-24T08:29:43.179Z,13.60
2018-06-24T08:32:10.494Z,13.60
2018-06-24T08:34:37.730Z,13.50
2018-06-24T08:37:05.144Z,13.70
2018-06-24T08:39:32.357Z,13.70
2018-06-24T08:41:59.610Z,13.70
2018-06-24T08:44:26.814Z,13.60
2018-06-24T08:46:54.197Z,13.60
2018-06-24T08:49:21.563Z,13.70
2018-06-24T08:51:48.804Z,13.90
2018-06-24T08:54:16.195Z,14.30
2018-06-24T08:56:43.425Z,14.60
2018-06-24T08:59:10.668Z,14.80
2018-06-24T09:01:37.921Z,14.90
2018-06-24T09:04:05.147Z,14.80
2018-06-24T09:06:32.558Z,15.00
2018-06-24T09:08:59.867Z,15.00
2018-06-24T09:11:27.141Z,14.80
2018-06-24T09:15:57.930Z,14.20
2018-06-24T09:18:25.061Z,13.80
2018-06-24T09:20:52.361Z,13.70
2018-06-24T09:25:47.035Z,13.40
2018-06-24T09:28:14.296Z,13.50
2018-06-24T09:30:41.871Z,13.50
2018-06-24T09:33:09.097Z,13.50
2018-06-24T09:35:36.346Z,13.50
2018-06-24T09:38:03.749Z,13.70
2018-06-24T09:40:31.051Z,14.40
2018-06-24T09:42:58.268Z,14.90
2018-06-24T09:45:25.507Z,15.40
2018-06-24T09:47:52.767Z,15.60
2018-06-24T09:50:20.021Z,15.30
2018-06-24T09:52:47.310Z,14.80
2018-06-24T09:55:14.882Z,14.80
2018-06-24T09:57:42.112Z,14.60
2018-06-24T10:00:15.873Z,14.40
2018-06-24T10:02:43.088Z,14.40
2018-06-24T10:05:10.334Z,14.40
2018-06-24T10:07:37.608Z,14.40
2018-06-24T10:10:04.881Z,14.50
2018-06-24T10:12:32.328Z,14.90
2018-06-24T10:14:59.630Z,15.20
2018-06-24T10:17:27.119Z,15.70
2018-06-24T10:19:54.358Z,15.70
2018-06-24T10:22:21.750Z,15.70
2018-06-24T10:24:49.053Z,15.70
2018-06-24T10:27:16.304Z,15.30
2018-06-24T10:29:43.694Z,15.10
2018-06-24T10:32:10.925Z,15.30
2018-06-24T10:34:38.370Z,15.20
2018-06-24T10:37:05.606Z,15.10
2018-06-24T10:39:32.877Z,15.00
2018-06-24T10:42:00.252Z,15.00
2018-06-24T10:44:27.560Z,15.10
2018-06-24T10:46:55.604Z,15.00
2018-06-24T10:49:22.985Z,15.10
2018-06-24T10:51:50.389Z,15.40
2018-06-24T10:54:18.341Z,15.70
2018-06-24T10:56:45.647Z,16.50
2018-06-24T10:59:12.953Z,16.30
2018-06-24T11:01:40.196Z,16.30
2018-06-24T11:04:06.993Z,16.10
2018-06-24T11:06:33.723Z,16.00
2018-06-24T11:09:00.847Z,15.80
2018-06-24T11:11:28.089Z,15.20
2018-06-24T11:13:54.889Z,14.90
2018-06-24T11:16:21.730Z,14.70
2018-06-24T11:18:48.512Z,14.50
2018-06-24T11:21:15.510Z,14.60
2018-06-24T11:23:42.234Z,14.70
2018-06-24T11:26:08.985Z,15.10
2018-06-24T11:28:35.729Z,15.70
2018-06-24T11:31:02.535Z,15.80
2018-06-24T11:33:29.283Z,15.50
2018-06-24T11:35:56.059Z,15.20
2018-06-24T11:38:22.794Z,15.00
2018-06-24T11:40:49.583Z,14.80
2018-06-24T11:43:16.890Z,14.70
2018-06-24T11:45:44.222Z,14.90
2018-06-24T11:48:11.478Z,15.20
2018-06-24T11:50:38.732Z,15.60
2018-06-24T11:53:05.988Z,15.80
2018-06-24T11:55:33.284Z,15.60
2018-06-24T11:58:00.558Z,15.50
2018-06-24T12:00:27.835Z,15.60
2018-06-24T12:02:55.070Z,15.50
2018-06-24T12:05:22.623Z,15.10
2018-06-24T12:07:49.852Z,15.10
2018-06-24T12:10:17.142Z,15.00
2018-06-24T12:12:44.750Z,15.00
2018-06-24T12:15:11.988Z,15.00
2018-06-24T12:17:39.256Z,14.90
2018-06-24T12:20:06.580Z,15.00
2018-06-24T12:22:33.939Z,15.10
2018-06-24T12:25:01.341Z,15.20
2018-06-24T12:27:28.572Z,15.70
2018-06-24T12:29:55.828Z,15.70
2018-06-24T12:32:23.132Z,15.60
2018-06-24T12:34:50.382Z,15.20
2018-06-24T12:37:17.753Z,15.20
2018-06-24T12:39:45.017Z,15.00
2018-06-24T12:42:12.253Z,14.80
2018-06-24T12:44:39.596Z,14.80
2018-06-24T12:47:06.984Z,14.80
2018-06-24T12:49:34.321Z,15.00
2018-06-24T12:54:28.837Z,15.60
2018-06-24T12:56:56.084Z,15.90
2018-06-24T12:59:23.793Z,16.00
2018-06-24T13:01:50.728Z,16.40
2018-06-24T13:04:17.958Z,16.30
2018-06-24T13:06:45.485Z,16.30
2018-06-24T13:09:12.757Z,16.20
2018-06-24T13:11:39.969Z,16.40
2018-06-24T13:14:07.444Z,16.30
2018-06-24T13:16:34.706Z,16.00
2018-06-24T13:19:02.789Z,15.80
2018-06-24T13:21:30.098Z,15.70
2018-06-24T13:23:57.756Z,15.60
2018-06-24T13:26:26.138Z,15.50
2018-06-24T13:28:54.450Z,15.30
2018-06-24T13:31:22.229Z,15.30
2018-06-24T13:33:50.530Z,15.30
2018-06-24T13:36:17.810Z,15.20
2018-06-24T13:38:45.219Z,15.30
2018-06-24T13:41:12.862Z,15.50
2018-06-24T13:43:40.317Z,15.70
2018-06-24T13:46:07.581Z,16.00
2018-06-24T13:48:34.841Z,16.30
2018-06-24T13:51:02.087Z,16.60
2018-06-24T13:53:29.391Z,16.30
2018-06-24T13:55:56.828Z,16.60
2018-06-24T13:58:24.273Z,16.40
2018-06-24T14:00:52.146Z,16.40
2018-06-24T14:03:19.471Z,16.60
2018-06-24T14:07:58.436Z,16.60
2018-06-24T14:10:25.633Z,16.40
2018-06-24T14:12:52.925Z,16.30
2018-06-24T14:15:20.243Z,16.10
2018-06-24T14:17:47.541Z,15.90
2018-06-24T14:20:14.844Z,15.80
2018-06-24T14:22:42.094Z,15.80
2018-06-24T14:25:09.350Z,15.60
2018-06-24T14:27:36.569Z,15.60
2018-06-24T14:30:03.969Z,15.40
2018-06-24T14:34:00.858Z,15.40
2018-06-24T14:36:28.197Z,15.40
2018-06-24T14:38:55.446Z,15.50
2018-06-24T14:41:23.043Z,15.40
2018-06-24T14:43:50.449Z,15.40
2018-06-24T14:46:18.486Z,15.40
2018-06-24T14:48:45.808Z,15.40
2018-06-24T14:51:13.164Z,15.40
2018-06-24T14:53:40.567Z,15.40
2018-06-24T14:56:07.830Z,15.40
2018-06-24T14:58:35.085Z,15.50
2018-06-24T15:01:03.141Z,15.70
2018-06-24T15:03:30.357Z,15.80
2018-06-24T15:05:57.647Z,16.00
2018-06-24T15:08:24.998Z,16.00
2018-06-24T15:10:52.270Z,16.00
2018-06-24T15:13:19.480Z,16.00
2018-06-24T15:15:46.829Z,15.70
2018-06-24T15:18:14.109Z,15.60
2018-06-24T15:20:41.343Z,15.50
2018-06-24T15:23:08.582Z,15.60
2018-06-24T15:25:35.833Z,15.50
2018-06-24T15:28:03.074Z,15.60
2018-06-24T15:30:30.265Z,15.60
2018-06-24T15:32:57.504Z,15.60
2018-06-24T15:35:24.726Z,15.60
2018-06-24T15:37:52.049Z,15.70
2018-06-24T15:40:19.293Z,15.60
2018-06-24T15:42:46.657Z,15.60
2018-06-24T15:45:13.899Z,15.40
2018-06-24T15:47:41.110Z,15.40
2018-06-24T15:50:08.505Z,15.40
2018-06-24T15:52:35.742Z,15.40
2018-06-24T15:57:30.584Z,15.60
2018-06-24T15:59:57.813Z,15.50
2018-06-24T16:02:25.042Z,15.50
2018-06-24T16:04:52.307Z,15.50
2018-06-24T16:07:19.622Z,15.30
2018-06-24T16:09:46.836Z,15.20
2018-06-24T16:12:14.192Z,15.10
2018-06-24T16:14:41.378Z,15.10
2018-06-24T16:17:08.611Z,15.10
2018-06-24T16:19:35.905Z,15.20
2018-06-24T16:22:03.151Z,15.30
2018-06-24T16:24:30.389Z,15.30
2018-06-24T16:26:57.715Z,15.40
2018-06-24T16:29:24.931Z,15.40
2018-06-24T16:31:52.255Z,15.30
2018-06-24T16:34:19.542Z,15.40
2018-06-24T16:36:46.273Z,15.40
2018-06-24T16:39:13.354Z,15.10
2018-06-24T16:41:40.336Z,15.20
2018-06-24T16:44:07.217Z,15.10
2018-06-24T16:46:34.159Z,15.10
2018-06-24T16:49:00.997Z,15.10
2018-06-24T16:51:27.736Z,15.20
2018-06-24T16:53:54.450Z,15.10
2018-06-24T16:56:21.281Z,15.20
2018-06-24T16:58:48.340Z,15.10
2018-06-24T17:01:15.037Z,15.10
2018-06-24T17:03:41.825Z,15.10
2018-06-24T17:06:09.373Z,15.00
2018-06-24T17:08:36.611Z,15.00
2018-06-24T17:11:04.022Z,15.00
2018-06-24T17:13:31.273Z,15.00
2018-06-24T17:15:58.537Z,14.90
2018-06-24T17:18:25.797Z,14.90
2018-06-24T17:20:53.024Z,14.90
2018-06-24T17:23:20.287Z,14.90
2018-06-24T17:25:47.815Z,14.80
2018-06-24T17:28:15.134Z,14.80
2018-06-24T17:30:42.340Z,14.90
2018-06-24T17:33:10.422Z,14.90
2018-06-24T17:35:37.671Z,14.80
2018-06-24T17:38:05.065Z,14.90
2018-06-24T17:40:32.295Z,14.90
2018-06-24T17:42:59.609Z,15.00
2018-06-24T17:45:26.978Z,15.00
2018-06-24T17:47:54.282Z,15.00
2018-06-24T17:50:21.524Z,15.00
2018-06-24T17:52:49.127Z,15.00
2018-06-24T17:55:16.399Z,15.00
2018-06-24T17:57:43.658Z,15.00
2018-06-24T18:00:10.923Z,14.90
2018-06-24T18:02:38.150Z,15.00
2018-06-24T18:05:05.709Z,15.10
2018-06-24T18:07:33.302Z,15.00
2018-06-24T18:12:27.855Z,14.80
2018-06-24T18:14:55.296Z,14.90
2018-06-24T18:17:22.513Z,14.80
2018-06-24T18:19:49.733Z,14.80
2018-06-24T18:22:16.989Z,14.80
2018-06-24T18:24:44.197Z,14.80
2018-06-24T18:27:11.404Z,14.80
2018-06-24T18:29:38.925Z,14.80
2018-06-24T18:32:06.198Z,14.80
2018-06-24T18:34:33.406Z,14.80
2018-06-24T18:37:00.741Z,14.60
2018-06-24T18:39:28.015Z,14.60
2018-06-24T18:41:55.224Z,14.60
2018-06-24T18:46:49.717Z,14.60
2018-06-24T18:49:16.981Z,14.60
2018-06-24T18:51:44.278Z,14.50
2018-06-24T18:54:11.542Z,14.50
2018-06-24T18:56:38.817Z,14.50
2018-06-24T18:59:06.080Z,14.50
2018-06-24T19:01:33.294Z,14.40
2018-06-24T19:04:00.572Z,14.40
2018-06-24T19:06:27.814Z,14.30
2018-06-24T19:08:55.042Z,14.30
2018-06-24T19:12:59.531Z,14.30
2018-06-24T19:15:26.781Z,14.20
2018-06-24T19:17:53.989Z,14.20
2018-06-24T19:20:21.428Z,14.20
2018-06-24T19:22:49.047Z,14.10
2018-06-24T19:25:16.411Z,14.10
2018-06-24T19:27:43.801Z,14.10
2018-06-24T19:30:11.061Z,14.00
2018-06-24T19:32:38.324Z,14.00
2018-06-24T19:35:05.605Z,14.00
2018-06-24T19:37:32.903Z,14.00
2018-06-24T19:40:00.257Z,14.00
2018-06-24T19:42:27.571Z,13.90
2018-06-24T19:44:54.841Z,13.90
2018-06-24T19:47:22.118Z,13.90
2018-06-24T19:49:49.348Z,13.80
2018-06-24T19:52:16.585Z,13.80
2018-06-24T19:54:43.794Z,13.80
2018-06-24T19:57:10.993Z,13.80
2018-06-24T20:02:05.704Z,13.70
2018-06-24T20:04:32.961Z,13.70
2018-06-24T20:07:00.325Z,13.60
2018-06-24T20:09:27.658Z,13.60
2018-06-24T20:11:54.841Z,13.60
2018-06-24T20:14:22.245Z,13.60
2018-06-24T20:16:49.859Z,13.60
2018-06-24T20:19:17.191Z,13.50
2018-06-24T20:21:44.618Z,13.50
2018-06-24T20:24:11.870Z,13.50
2018-06-24T20:26:39.341Z,13.50
2018-06-24T20:29:06.574Z,13.50
2018-06-24T20:31:33.919Z,13.40
2018-06-24T20:34:01.121Z,13.40
2018-06-24T20:36:28.389Z,13.30
2018-06-24T20:38:55.838Z,13.40
2018-06-24T20:41:23.028Z,13.30
2018-06-24T20:43:50.314Z,13.30
2018-06-24T20:46:17.544Z,13.20
2018-06-24T20:48:44.953Z,13.20
2018-06-24T20:51:12.161Z,13.10
2018-06-24T20:53:39.438Z,13.10
2018-06-24T20:56:07.010Z,13.00
2018-06-24T20:58:34.155Z,12.90
2018-06-24T21:01:01.696Z,12.90
2018-06-24T21:03:28.985Z,12.90
2018-06-24T21:05:56.177Z,12.80
2018-06-24T21:08:23.365Z,12.80
2018-06-24T21:10:50.681Z,12.70
2018-06-24T21:13:17.989Z,12.70
2018-06-24T21:15:45.212Z,12.60
2018-06-24T21:18:12.579Z,12.60
2018-06-24T21:20:39.769Z,12.60
2018-06-24T21:23:07.217Z,12.50
2018-06-24T21:25:35.140Z,12.40
2018-06-24T21:28:02.362Z,12.40
2018-06-24T21:30:29.596Z,12.50
2018-06-24T21:32:56.796Z,12.40
2018-06-24T21:35:24.437Z,12.40
2018-06-24T21:37:51.663Z,12.40
2018-06-24T21:40:18.874Z,12.40
2018-06-24T21:42:46.061Z,12.30
2018-06-24T21:45:13.337Z,12.30
2018-06-24T21:47:40.608Z,12.30
2018-06-24T21:52:35.228Z,12.10
2018-06-24T21:55:02.595Z,12.10
2018-06-24T21:57:29.979Z,12.20
2018-06-24T21:59:57.191Z,12.20
2018-06-24T22:02:24.502Z,12.10
2018-06-24T22:04:52.190Z,12.10
2018-06-24T22:07:19.477Z,12.10
2018-06-24T22:09:46.704Z,12.00
2018-06-24T22:12:14.042Z,12.00
2018-06-24T22:14:41.284Z,12.00
2018-06-24T22:17:08.557Z,12.10
2018-06-24T22:19:35.842Z,12.00
2018-06-24T22:22:03.137Z,12.00
2018-06-24T22:24:30.443Z,12.00
2018-06-24T22:26:58.022Z,11.90
2018-06-24T22:29:25.233Z,12.00
2018-06-24T22:31:52.467Z,12.10
2018-06-24T22:34:19.666Z,12.10
2018-06-24T22:36:46.909Z,12.00
2018-06-24T22:39:14.121Z,12.00
2018-06-24T22:41:41.572Z,12.00
2018-06-24T22:44:08.923Z,11.90
2018-06-24T22:46:36.139Z,11.90
2018-06-24T22:49:03.422Z,11.90
2018-06-24T22:51:30.718Z,11.90
2018-06-24T22:53:57.958Z,11.90
2018-06-24T22:56:25.151Z,11.90
2018-06-24T22:59:03.895Z,11.90
2018-06-24T23:01:31.848Z,11.90
2018-06-24T23:03:59.090Z,11.90
2018-06-24T23:06:26.401Z,11.90
2018-06-24T23:08:53.659Z,11.90
2018-06-24T23:11:20.902Z,12.00
2018-06-24T23:13:48.106Z,12.00
2018-06-24T23:16:15.446Z,12.00
2018-06-24T23:18:42.743Z,12.00
2018-06-24T23:21:09.991Z,12.10
2018-06-24T23:23:37.366Z,12.10
2018-06-24T23:26:04.700Z,12.20
2018-06-24T23:28:32.028Z,12.30
2018-06-24T23:30:59.715Z,12.30
2018-06-24T23:33:26.994Z,12.30
2018-06-24T23:35:54.255Z,12.30
2018-06-24T23:38:21.506Z,12.30
2018-06-24T23:40:48.773Z,12.30
2018-06-24T23:43:16.106Z,12.30
2018-06-24T23:45:43.508Z,12.40
2018-06-24T23:48:10.747Z,12.40
2018-06-24T23:50:37.968Z,12.50
2018-06-24T23:53:05.622Z,12.50
2018-06-24T23:55:32.874Z,12.50
2018-06-24T23:58:00.106Z,12.60
